Spokane, WA (99219)

10:07 PM PDT on August 27, 2014 (GMT -0700)
Spokane International | Change Station
CLOSE
Current Station
Airport
Location: Spokane,
Elevation: 2365 ft
Nearby Weather Stations

Elev 2365 ft 47.62 °N, 117.53 °W | Updated 14 minutes ago

Partly Cloudy
Partly Cloudy
77 °F
Feels Like 77 °F
N
8
Wind Variable Wind from SSW

Today
High -- | Low -- °F
--% Chance of Precip.
Yesterday
High -- | Low -- °F
Precip. -- in
6:02 AM 7:40 PM
Waxing Crescent, 6% visible
Pressure 29.89 in
Visibility 10.0 miles
Clouds Few 9000 ft
Few 14000 ft
Dew Point 47 °F
Humidity 34%
Rainfall 0.00 in
Snow Depth Not available.
UV 0 out of 12
Pollen 7.70 out of 12
PM2.5 Good
Flu Activity Not available.
METAR KGEG 280453Z 21007KT 10SM FEW090 FEW140 25/08 A2995 RMK AO2 SLP122 T02500083

More Conditions Fewer Conditions

Pressure 29.89 in
Visibility 10.0 miles
Clouds Few 9000 ft
Few 14000 ft
Dew Point 47 °F
Humidity 34%
Rainfall 0.00 in
Snow Depth Not available.
UV 0 out of 12
Pollen 7.70 out of 12
PM2.5 Good
Flu Activity Not available.
METAR KGEG 280453Z 21007KT 10SM FEW090 FEW140 25/08 A2995 RMK AO2 SLP122 T02500083

More Conditions Fewer Conditions

10-Day Weather Forecast

Almanac

Astronomy

Aug. 27, 2014 Rise Set
Actual Time 6:02 AM PDT 7:40 PM PDT
Civil Twilight 5:29 AM PDT 8:12 PM PDT
Nautical Twilight 4:50 AM PDT 8:51 PM PDT
Astronomical Twilight 4:06 AM PDT 9:34 PM PDT
Moon 8:14 AM PDT (8/27) 8:21 PM PDT (8/27)
Length of Visible Light 14h 42m
Length of Day
13h 38m
Tomorrow will be 3m 17s shorter.
Waxing Crescent, 6% of the Moon is Illuminated
Aug 28
Waxing Crescent
Sep 2
First Quarter
Sep 8
Full
Sep 15
Last Quarter
Sep 24
New

Yesterday's Extremes

State Highs State Lows

Community

WunderPhotos

Upload Photos

1,747,908 photos uploaded!

Nearby

Air Quality

  Air Quality AQ Index Pollutant
Yesterday Good
PM10
Yesterday Good
OZONE
Current Good
PM2.5
Wednesday Good
PM10
Wednesday Good
OZONE
Thursday Good
PM10
Thursday Good
OZONE

Snow Depth

Station Depth Elevation
Quartz Peak 1 in 4700 ft
Moses Mountain 1 in 5300 ft
Sourdough Gulch 0 in 4000 ft
Spruce Springs 0 in 5700 ft
Trough 0 in 5300 ft

Earthquake Activity

City Distance Mag. Time & Date
No recent earthquake activity has been reported nearby.
Minimum magnitude displayed is 2.5.

Coastal Water Temperatures

Place Temperature
No Stations Reporting

Nearby Weather Stations